sensor_id;sensor_type;location;lat;lon;timestamp;P1;durP1;ratioP1;P2;durP2;ratioP2
27383;SDS011;14851;51.166;4.760;2024-01-10T00:01:09;11.27;;;5.80;;
27383;SDS011;14851;51.166;4.760;2024-01-10T00:03:38;8.82;;;5.40;;
27383;SDS011;14851;51.166;4.760;2024-01-10T00:06:04;8.48;;;4.97;;
27383;SDS011;14851;51.166;4.760;2024-01-10T00:08:31;9.10;;;5.38;;
27383;SDS011;14851;51.166;4.760;2024-01-10T00:10:59;8.18;;;4.80;;
27383;SDS011;14851;51.166;4.760;2024-01-10T00:13:25;11.82;;;5.53;;
27383;SDS011;14851;51.166;4.760;2024-01-10T00:15:51;9.82;;;5.47;;
27383;SDS011;14851;51.166;4.760;2024-01-10T00:18:17;8.77;;;5.53;;
27383;SDS011;14851;51.166;4.760;2024-01-10T00:20:45;10.30;;;5.82;;
27383;SDS011;14851;51.166;4.760;2024-01-10T00:23:12;10.60;;;5.82;;
27383;SDS011;14851;51.166;4.760;2024-01-10T00:25:38;9.27;;;5.50;;
27383;SDS011;14851;51.166;4.760;2024-01-10T00:28:04;9.07;;;4.78;;
27383;SDS011;14851;51.166;4.760;2024-01-10T00:30:30;9.77;;;4.90;;
27383;SDS011;14851;51.166;4.760;2024-01-10T00:32:57;9.32;;;5.40;;
27383;SDS011;14851;51.166;4.760;2024-01-10T00:35:25;8.52;;;4.90;;
27383;SDS011;14851;51.166;4.760;2024-01-10T00:37:51;10.18;;;5.22;;
27383;SDS011;14851;51.166;4.760;2024-01-10T00:40:17;7.90;;;4.88;;
27383;SDS011;14851;51.166;4.760;2024-01-10T00:42:43;8.70;;;4.75;;
27383;SDS011;14851;51.166;4.760;2024-01-10T00:45:09;9.07;;;4.88;;
27383;SDS011;14851;51.166;4.760;2024-01-10T00:47:35;10.07;;;5.47;;
27383;SDS011;14851;51.166;4.760;2024-01-10T00:50:02;8.75;;;5.43;;
27383;SDS011;14851;51.166;4.760;2024-01-10T00:52:28;8.70;;;5.13;;
27383;SDS011;14851;51.166;4.760;2024-01-10T00:54:54;9.38;;;5.45;;
27383;SDS011;14851;51.166;4.760;2024-01-10T00:57:20;9.23;;;5.15;;
27383;SDS011;14851;51.166;4.760;2024-01-10T00:59:48;11.80;;;5.88;;
27383;SDS011;14851;51.166;4.760;2024-01-10T01:02:14;9.23;;;5.32;;
27383;SDS011;14851;51.166;4.760;2024-01-10T01:04:39;11.25;;;5.95;;
27383;SDS011;14851;51.166;4.760;2024-01-10T01:07:05;9.60;;;4.97;;
27383;SDS011;14851;51.166;4.760;2024-01-10T01:09:31;9.00;;;5.20;;
27383;SDS011;14851;51.166;4.760;2024-01-10T01:11:57;9.02;;;4.78;;
27383;SDS011;14851;51.166;4.760;2024-01-10T01:14:23;8.57;;;5.22;;
27383;SDS011;14851;51.166;4.760;2024-01-10T01:16:49;8.48;;;5.28;;
27383;SDS011;14851;51.166;4.760;2024-01-10T01:19:16;7.88;;;4.90;;
27383;SDS011;14851;51.166;4.760;2024-01-10T01:21:45;12.85;;;5.22;;
27383;SDS011;14851;51.166;4.760;2024-01-10T01:24:12;10.57;;;5.78;;
27383;SDS011;14851;51.166;4.760;2024-01-10T01:26:38;9.98;;;5.72;;
27383;SDS011;14851;51.166;4.760;2024-01-10T01:29:04;9.68;;;5.25;;
27383;SDS011;14851;51.166;4.760;2024-01-10T01:31:31;9.52;;;5.75;;
27383;SDS011;14851;51.166;4.760;2024-01-10T01:34:00;7.45;;;5.03;;
27383;SDS011;14851;51.166;4.760;2024-01-10T01:36:26;8.68;;;5.00;;
27383;SDS011;14851;51.166;4.760;2024-01-10T01:38:54;9.65;;;5.60;;
27383;SDS011;14851;51.166;4.760;2024-01-10T01:41:23;7.88;;;4.90;;
27383;SDS011;14851;51.166;4.760;2024-01-10T01:43:51;7.72;;;4.80;;
27383;SDS011;14851;51.166;4.760;2024-01-10T01:46:17;7.88;;;5.20;;
27383;SDS011;14851;51.166;4.760;2024-01-10T01:48:43;8.30;;;5.10;;
27383;SDS011;14851;51.166;4.760;2024-01-10T01:51:12;12.98;;;5.78;;
27383;SDS011;14851;51.166;4.760;2024-01-10T01:53:39;9.23;;;5.50;;
27383;SDS011;14851;51.166;4.760;2024-01-10T01:56:07;8.30;;;4.75;;
27383;SDS011;14851;51.166;4.760;2024-01-10T01:58:35;10.10;;;5.25;;
27383;SDS011;14851;51.166;4.760;2024-01-10T02:01:03;9.68;;;5.68;;
27383;SDS011;14851;51.166;4.760;2024-01-10T02:03:32;7.75;;;5.00;;
27383;SDS011;14851;51.166;4.760;2024-01-10T02:06:03;10.10;;;5.78;;
27383;SDS011;14851;51.166;4.760;2024-01-10T02:08:31;7.57;;;4.55;;
27383;SDS011;14851;51.166;4.760;2024-01-10T02:10:58;9.18;;;5.13;;
27383;SDS011;14851;51.166;4.760;2024-01-10T02:13:24;9.35;;;5.43;;
27383;SDS011;14851;51.166;4.760;2024-01-10T02:15:51;9.32;;;5.55;;
27383;SDS011;14851;51.166;4.760;2024-01-10T02:18:18;10.68;;;4.93;;
27383;SDS011;14851;51.166;4.760;2024-01-10T02:20:44;8.68;;;5.03;;
27383;SDS011;14851;51.166;4.760;2024-01-10T02:23:13;11.30;;;5.63;;
27383;SDS011;14851;51.166;4.760;2024-01-10T02:25:40;7.13;;;4.55;;
27383;SDS011;14851;51.166;4.760;2024-01-10T02:28:06;9.80;;;5.07;;
27383;SDS011;14851;51.166;4.760;2024-01-10T02:30:34;9.85;;;5.38;;
27383;SDS011;14851;51.166;4.760;2024-01-10T02:33:02;8.20;;;4.93;;
27383;SDS011;14851;51.166;4.760;2024-01-10T02:35:29;9.98;;;5.28;;
27383;SDS011;14851;51.166;4.760;2024-01-10T02:37:58;10.38;;;5.28;;
27383;SDS011;14851;51.166;4.760;2024-01-10T02:40:26;9.90;;;5.50;;
27383;SDS011;14851;51.166;4.760;2024-01-10T02:42:52;12.20;;;5.53;;
27383;SDS011;14851;51.166;4.760;2024-01-10T02:45:21;10.90;;;5.80;;
27383;SDS011;14851;51.166;4.760;2024-01-10T02:47:50;9.70;;;5.03;;
27383;SDS011;14851;51.166;4.760;2024-01-10T02:50:15;9.32;;;5.60;;
27383;SDS011;14851;51.166;4.760;2024-01-10T02:52:44;9.75;;;5.88;;
27383;SDS011;14851;51.166;4.760;2024-01-10T02:55:12;13.15;;;5.80;;
27383;SDS011;14851;51.166;4.760;2024-01-10T02:57:38;9.55;;;5.93;;
27383;SDS011;14851;51.166;4.760;2024-01-10T03:00:04;10.10;;;5.75;;
27383;SDS011;14851;51.166;4.760;2024-01-10T03:02:31;8.77;;;5.95;;
27383;SDS011;14851;51.166;4.760;2024-01-10T03:04:59;10.75;;;5.68;;
27383;SDS011;14851;51.166;4.760;2024-01-10T03:07:26;10.63;;;5.38;;
27383;SDS011;14851;51.166;4.760;2024-01-10T03:09:52;10.32;;;5.88;;
27383;SDS011;14851;51.166;4.760;2024-01-10T03:12:17;8.23;;;5.32;;
27383;SDS011;14851;51.166;4.760;2024-01-10T03:14:46;8.98;;;4.78;;
27383;SDS011;14851;51.166;4.760;2024-01-10T03:17:11;9.77;;;5.32;;
27383;SDS011;14851;51.166;4.760;2024-01-10T03:19:37;9.18;;;5.07;;
27383;SDS011;14851;51.166;4.760;2024-01-10T03:22:07;8.60;;;5.15;;
27383;SDS011;14851;51.166;4.760;2024-01-10T03:24:35;11.63;;;6.07;;
27383;SDS011;14851;51.166;4.760;2024-01-10T03:27:05;10.48;;;5.20;;
27383;SDS011;14851;51.166;4.760;2024-01-10T03:29:32;10.90;;;5.10;;
27383;SDS011;14851;51.166;4.760;2024-01-10T03:31:58;9.80;;;5.45;;
27383;SDS011;14851;51.166;4.760;2024-01-10T03:34:24;9.00;;;5.15;;
27383;SDS011;14851;51.166;4.760;2024-01-10T03:36:50;8.95;;;5.03;;
27383;SDS011;14851;51.166;4.760;2024-01-10T03:39:16;10.15;;;5.90;;
27383;SDS011;14851;51.166;4.760;2024-01-10T03:41:43;7.55;;;4.85;;
27383;SDS011;14851;51.166;4.760;2024-01-10T03:44:12;9.45;;;5.60;;
27383;SDS011;14851;51.166;4.760;2024-01-10T03:46:37;7.68;;;4.60;;
27383;SDS011;14851;51.166;4.760;2024-01-10T03:49:06;9.82;;;4.85;;
27383;SDS011;14851;51.166;4.760;2024-01-10T03:51:34;8.15;;;5.00;;
27383;SDS011;14851;51.166;4.760;2024-01-10T03:54:01;9.18;;;5.03;;
27383;SDS011;14851;51.166;4.760;2024-01-10T03:56:27;7.55;;;4.80;;
27383;SDS011;14851;51.166;4.760;2024-01-10T03:58:52;13.32;;;5.38;;
27383;SDS011;14851;51.166;4.760;2024-01-10T04:01:23;11.88;;;4.88;;
27383;SDS011;14851;51.166;4.760;2024-01-10T04:03:49;9.63;;;5.03;;
27383;SDS011;14851;51.166;4.760;2024-01-10T04:06:17;12.45;;;5.60;;
27383;SDS011;14851;51.166;4.760;2024-01-10T04:08:43;9.07;;;5.03;;
27383;SDS011;14851;51.166;4.760;2024-01-10T04:11:09;7.57;;;4.65;;
27383;SDS011;14851;51.166;4.760;2024-01-10T04:13:35;8.85;;;4.93;;
27383;SDS011;14851;51.166;4.760;2024-01-10T04:16:04;9.38;;;4.95;;
27383;SDS011;14851;51.166;4.760;2024-01-10T04:18:30;9.07;;;4.95;;
27383;SDS011;14851;51.166;4.760;2024-01-10T04:20:56;8.40;;;4.75;;
27383;SDS011;14851;51.166;4.760;2024-01-10T04:23:25;7.78;;;4.85;;
27383;SDS011;14851;51.166;4.760;2024-01-10T04:25:52;9.52;;;4.88;;
27383;SDS011;14851;51.166;4.760;2024-01-10T04:28:17;7.78;;;4.93;;
27383;SDS011;14851;51.166;4.760;2024-01-10T04:30:43;8.60;;;5.03;;
27383;SDS011;14851;51.166;4.760;2024-01-10T04:33:10;7.03;;;4.22;;
27383;SDS011;14851;51.166;4.760;2024-01-10T04:35:38;8.90;;;5.47;;
27383;SDS011;14851;51.166;4.760;2024-01-10T04:38:07;7.03;;;4.25;;
27383;SDS011;14851;51.166;4.760;2024-01-10T04:40:35;7.70;;;4.55;;
27383;SDS011;14851;51.166;4.760;2024-01-10T04:43:03;7.20;;;4.78;;
27383;SDS011;14851;51.166;4.760;2024-01-10T04:45:31;9.43;;;5.15;;
27383;SDS011;14851;51.166;4.760;2024-01-10T04:48:00;9.23;;;5.07;;
27383;SDS011;14851;51.166;4.760;2024-01-10T04:50:26;9.07;;;5.35;;
27383;SDS011;14851;51.166;4.760;2024-01-10T04:52:52;9.85;;;5.40;;
27383;SDS011;14851;51.166;4.760;2024-01-10T04:55:17;9.07;;;5.05;;
27383;SDS011;14851;51.166;4.760;2024-01-10T04:57:43;8.00;;;5.38;;
27383;SDS011;14851;51.166;4.760;2024-01-10T05:00:11;8.30;;;5.13;;
27383;SDS011;14851;51.166;4.760;2024-01-10T05:02:37;8.68;;;5.00;;
27383;SDS011;14851;51.166;4.760;2024-01-10T05:05:06;10.40;;;5.40;;
27383;SDS011;14851;51.166;4.760;2024-01-10T05:07:33;9.02;;;5.40;;
27383;SDS011;14851;51.166;4.760;2024-01-10T05:10:01;9.57;;;5.10;;
27383;SDS011;14851;51.166;4.760;2024-01-10T05:12:32;8.85;;;4.80;;
27383;SDS011;14851;51.166;4.760;2024-01-10T05:14:58;7.85;;;5.05;;
27383;SDS011;14851;51.166;4.760;2024-01-10T05:17:27;9.35;;;4.88;;
27383;SDS011;14851;51.166;4.760;2024-01-10T05:19:52;8.93;;;4.75;;
27383;SDS011;14851;51.166;4.760;2024-01-10T05:22:22;8.88;;;5.35;;
27383;SDS011;14851;51.166;4.760;2024-01-10T05:24:53;11.45;;;5.00;;
27383;SDS011;14851;51.166;4.760;2024-01-10T05:27:21;8.95;;;5.20;;
27383;SDS011;14851;51.166;4.760;2024-01-10T05:29:48;8.23;;;5.03;;
27383;SDS011;14851;51.166;4.760;2024-01-10T05:32:16;10.60;;;6.22;;
27383;SDS011;14851;51.166;4.760;2024-01-10T05:34:43;8.88;;;5.47;;
27383;SDS011;14851;51.166;4.760;2024-01-10T05:37:09;9.05;;;4.85;;
27383;SDS011;14851;51.166;4.760;2024-01-10T05:39:41;9.07;;;5.38;;
27383;SDS011;14851;51.166;4.760;2024-01-10T05:42:09;8.15;;;4.95;;
27383;SDS011;14851;51.166;4.760;2024-01-10T05:44:37;11.25;;;5.28;;
27383;SDS011;14851;51.166;4.760;2024-01-10T05:47:04;8.30;;;5.57;;
27383;SDS011;14851;51.166;4.760;2024-01-10T05:49:30;9.88;;;5.35;;
27383;SDS011;14851;51.166;4.760;2024-01-10T05:51:56;9.70;;;5.20;;
27383;SDS011;14851;51.166;4.760;2024-01-10T05:54:22;10.15;;;5.53;;
27383;SDS011;14851;51.166;4.760;2024-01-10T05:56:51;9.48;;;5.45;;
27383;SDS011;14851;51.166;4.760;2024-01-10T05:59:17;7.57;;;5.18;;
27383;SDS011;14851;51.166;4.760;2024-01-10T06:01:45;8.98;;;5.10;;
27383;SDS011;14851;51.166;4.760;2024-01-10T06:04:10;7.50;;;4.90;;
27383;SDS011;14851;51.166;4.760;2024-01-10T06:06:36;8.80;;;5.32;;
27383;SDS011;14851;51.166;4.760;2024-01-10T06:09:04;9.98;;;5.32;;
27383;SDS011;14851;51.166;4.760;2024-01-10T06:11:30;8.82;;;4.97;;
27383;SDS011;14851;51.166;4.760;2024-01-10T06:13:56;8.55;;;5.13;;
27383;SDS011;14851;51.166;4.760;2024-01-10T06:16:25;10.18;;;5.82;;
27383;SDS011;14851;51.166;4.760;2024-01-10T06:18:53;7.90;;;5.00;;
27383;SDS011;14851;51.166;4.760;2024-01-10T06:21:19;8.80;;;5.40;;
27383;SDS011;14851;51.166;4.760;2024-01-10T06:23:45;9.88;;;5.22;;
27383;SDS011;14851;51.166;4.760;2024-01-10T06:26:12;10.60;;;5.70;;
27383;SDS011;14851;51.166;4.760;2024-01-10T06:28:40;8.20;;;4.90;;
27383;SDS011;14851;51.166;4.760;2024-01-10T06:31:08;14.40;;;5.60;;
27383;SDS011;14851;51.166;4.760;2024-01-10T06:33:34;11.05;;;5.30;;
27383;SDS011;14851;51.166;4.760;2024-01-10T06:36:02;9.88;;;5.60;;
27383;SDS011;14851;51.166;4.760;2024-01-10T06:38:28;7.60;;;5.32;;
27383;SDS011;14851;51.166;4.760;2024-01-10T06:40:57;9.18;;;5.25;;
27383;SDS011;14851;51.166;4.760;2024-01-10T06:43:23;10.70;;;5.55;;
27383;SDS011;14851;51.166;4.760;2024-01-10T06:45:48;8.55;;;4.90;;
27383;SDS011;14851;51.166;4.760;2024-01-10T06:48:14;11.02;;;5.90;;
27383;SDS011;14851;51.166;4.760;2024-01-10T06:50:40;9.13;;;5.30;;
27383;SDS011;14851;51.166;4.760;2024-01-10T06:53:08;11.30;;;5.65;;
27383;SDS011;14851;51.166;4.760;2024-01-10T06:55:34;10.43;;;5.75;;
27383;SDS011;14851;51.166;4.760;2024-01-10T06:58:00;11.38;;;6.00;;
27383;SDS011;14851;51.166;4.760;2024-01-10T07:00:26;9.95;;;5.45;;
27383;SDS011;14851;51.166;4.760;2024-01-10T07:02:56;10.10;;;5.93;;
27383;SDS011;14851;51.166;4.760;2024-01-10T07:05:27;9.13;;;5.72;;
27383;SDS011;14851;51.166;4.760;2024-01-10T07:07:53;9.73;;;5.78;;
27383;SDS011;14851;51.166;4.760;2024-01-10T07:10:21;10.35;;;5.28;;
27383;SDS011;14851;51.166;4.760;2024-01-10T07:12:51;10.10;;;5.95;;
27383;SDS011;14851;51.166;4.760;2024-01-10T07:15:17;12.52;;;6.03;;
27383;SDS011;14851;51.166;4.760;2024-01-10T07:17:43;11.00;;;5.63;;
27383;SDS011;14851;51.166;4.760;2024-01-10T07:20:11;11.68;;;5.85;;
27383;SDS011;14851;51.166;4.760;2024-01-10T07:22:37;12.60;;;6.68;;
27383;SDS011;14851;51.166;4.760;2024-01-10T07:25:12;9.75;;;6.25;;
27383;SDS011;14851;51.166;4.760;2024-01-10T07:27:40;10.45;;;6.35;;
27383;SDS011;14851;51.166;4.760;2024-01-10T07:30:07;10.55;;;5.65;;
27383;SDS011;14851;51.166;4.760;2024-01-10T07:35:08;12.43;;;6.68;;
27383;SDS011;14851;51.166;4.760;2024-01-10T07:37:37;8.38;;;5.05;;
27383;SDS011;14851;51.166;4.760;2024-01-10T07:40:07;9.48;;;4.85;;
27383;SDS011;14851;51.166;4.760;2024-01-10T07:42:36;11.27;;;6.00;;
27383;SDS011;14851;51.166;4.760;2024-01-10T07:45:03;12.45;;;6.20;;
27383;SDS011;14851;51.166;4.760;2024-01-10T07:47:33;9.65;;;6.00;;
27383;SDS011;14851;51.166;4.760;2024-01-10T07:50:06;11.35;;;6.35;;
27383;SDS011;14851;51.166;4.760;2024-01-10T07:52:37;7.25;;;4.93;;
27383;SDS011;14851;51.166;4.760;2024-01-10T07:55:03;12.50;;;6.65;;
27383;SDS011;14851;51.166;4.760;2024-01-10T07:57:30;9.23;;;5.35;;
27383;SDS011;14851;51.166;4.760;2024-01-10T07:59:57;9.25;;;6.22;;
27383;SDS011;14851;51.166;4.760;2024-01-10T08:02:23;9.02;;;6.22;;
27383;SDS011;14851;51.166;4.760;2024-01-10T08:04:49;10.20;;;6.22;;
27383;SDS011;14851;51.166;4.760;2024-01-10T08:07:16;9.90;;;5.45;;
27383;SDS011;14851;51.166;4.760;2024-01-10T08:09:42;12.02;;;6.50;;
27383;SDS011;14851;51.166;4.760;2024-01-10T08:12:09;9.38;;;5.70;;
27383;SDS011;14851;51.166;4.760;2024-01-10T08:14:37;8.75;;;5.20;;
27383;SDS011;14851;51.166;4.760;2024-01-10T08:17:03;9.18;;;5.43;;
27383;SDS011;14851;51.166;4.760;2024-01-10T08:19:29;14.68;;;6.75;;
27383;SDS011;14851;51.166;4.760;2024-01-10T08:21:55;12.13;;;6.75;;
27383;SDS011;14851;51.166;4.760;2024-01-10T08:24:21;12.48;;;6.65;;
27383;SDS011;14851;51.166;4.760;2024-01-10T08:26:48;10.93;;;6.53;;
27383;SDS011;14851;51.166;4.760;2024-01-10T08:29:17;10.65;;;6.28;;
27383;SDS011;14851;51.166;4.760;2024-01-10T08:31:44;12.85;;;6.53;;
27383;SDS011;14851;51.166;4.760;2024-01-10T08:34:11;11.00;;;5.75;;
27383;SDS011;14851;51.166;4.760;2024-01-10T08:36:37;13.05;;;6.43;;
27383;SDS011;14851;51.166;4.760;2024-01-10T08:39:03;8.98;;;5.60;;
27383;SDS011;14851;51.166;4.760;2024-01-10T08:41:31;9.73;;;6.57;;
27383;SDS011;14851;51.166;4.760;2024-01-10T08:43:56;12.43;;;6.38;;
27383;SDS011;14851;51.166;4.760;2024-01-10T08:46:22;9.27;;;5.82;;
27383;SDS011;14851;51.166;4.760;2024-01-10T08:48:50;9.48;;;5.65;;
27383;SDS011;14851;51.166;4.760;2024-01-10T08:51:16;10.40;;;6.13;;
27383;SDS011;14851;51.166;4.760;2024-01-10T08:53:42;10.43;;;5.75;;
27383;SDS011;14851;51.166;4.760;2024-01-10T08:56:12;13.80;;;6.88;;
27383;SDS011;14851;51.166;4.760;2024-01-10T08:58:42;11.18;;;6.90;;
27383;SDS011;14851;51.166;4.760;2024-01-10T09:01:08;11.95;;;6.13;;
27383;SDS011;14851;51.166;4.760;2024-01-10T09:03:35;10.05;;;5.70;;
27383;SDS011;14851;51.166;4.760;2024-01-10T09:06:01;10.85;;;6.07;;
27383;SDS011;14851;51.166;4.760;2024-01-10T09:22:30;12.57;;;7.82;;
27383;SDS011;14851;51.166;4.760;2024-01-10T09:24:58;13.35;;;7.55;;
27383;SDS011;14851;51.166;4.760;2024-01-10T09:27:30;12.07;;;7.55;;
27383;SDS011;14851;51.166;4.760;2024-01-10T09:30:06;12.88;;;7.90;;
27383;SDS011;14851;51.166;4.760;2024-01-10T09:32:42;9.52;;;6.28;;
27383;SDS011;14851;51.166;4.760;2024-01-10T09:35:10;13.52;;;7.63;;
27383;SDS011;14851;51.166;4.760;2024-01-10T09:37:36;11.25;;;6.93;;
27383;SDS011;14851;51.166;4.760;2024-01-10T09:40:04;13.85;;;7.35;;
27383;SDS011;14851;51.166;4.760;2024-01-10T09:42:34;14.05;;;7.80;;
27383;SDS011;14851;51.166;4.760;2024-01-10T09:45:05;15.25;;;8.05;;
27383;SDS011;14851;51.166;4.760;2024-01-10T09:47:39;10.15;;;6.28;;
27383;SDS011;14851;51.166;4.760;2024-01-10T09:50:13;12.52;;;7.65;;
27383;SDS011;14851;51.166;4.760;2024-01-10T09:52:48;11.73;;;6.97;;
27383;SDS011;14851;51.166;4.760;2024-01-10T09:55:36;12.82;;;5.88;;
27383;SDS011;14851;51.166;4.760;2024-01-10T09:58:06;12.13;;;6.47;;
27383;SDS011;14851;51.166;4.760;2024-01-10T10:00:36;13.30;;;7.00;;
27383;SDS011;14851;51.166;4.760;2024-01-10T10:03:12;13.75;;;7.70;;
27383;SDS011;14851;51.166;4.760;2024-01-10T10:05:42;16.90;;;7.95;;
27383;SDS011;14851;51.166;4.760;2024-01-10T10:08:11;11.88;;;6.82;;
27383;SDS011;14851;51.166;4.760;2024-01-10T10:10:42;13.48;;;7.80;;
27383;SDS011;14851;51.166;4.760;2024-01-10T10:13:10;9.50;;;6.32;;
27383;SDS011;14851;51.166;4.760;2024-01-10T10:15:57;10.63;;;6.57;;
27383;SDS011;14851;51.166;4.760;2024-01-10T10:18:31;12.77;;;6.85;;
27383;SDS011;14851;51.166;4.760;2024-01-10T10:21:13;15.48;;;7.25;;
27383;SDS011;14851;51.166;4.760;2024-01-10T10:23:56;15.02;;;7.82;;
27383;SDS011;14851;51.166;4.760;2024-01-10T10:26:23;10.50;;;6.07;;
27383;SDS011;14851;51.166;4.760;2024-01-10T10:28:51;14.73;;;7.22;;
27383;SDS011;14851;51.166;4.760;2024-01-10T10:31:18;12.98;;;7.55;;
27383;SDS011;14851;51.166;4.760;2024-01-10T10:33:45;11.90;;;6.00;;
27383;SDS011;14851;51.166;4.760;2024-01-10T10:38:43;12.48;;;7.05;;
27383;SDS011;14851;51.166;4.760;2024-01-10T10:41:10;10.32;;;6.43;;
27383;SDS011;14851;51.166;4.760;2024-01-10T10:43:39;12.82;;;6.68;;
27383;SDS011;14851;51.166;4.760;2024-01-10T10:46:08;13.47;;;8.40;;
27383;SDS011;14851;51.166;4.760;2024-01-10T10:48:40;11.02;;;7.00;;
27383;SDS011;14851;51.166;4.760;2024-01-10T10:53:35;15.32;;;7.43;;
27383;SDS011;14851;51.166;4.760;2024-01-10T10:56:04;12.55;;;7.35;;
27383;SDS011;14851;51.166;4.760;2024-01-10T10:58:39;12.70;;;7.75;;
27383;SDS011;14851;51.166;4.760;2024-01-10T11:01:06;18.13;;;8.30;;
27383;SDS011;14851;51.166;4.760;2024-01-10T11:03:40;12.23;;;6.90;;
27383;SDS011;14851;51.166;4.760;2024-01-10T11:06:12;13.40;;;7.63;;
27383;SDS011;14851;51.166;4.760;2024-01-10T11:08:50;17.52;;;9.20;;
27383;SDS011;14851;51.166;4.760;2024-01-10T11:11:41;12.93;;;8.15;;
27383;SDS011;14851;51.166;4.760;2024-01-10T11:25:32;14.20;;;8.65;;
27383;SDS011;14851;51.166;4.760;2024-01-10T11:28:02;13.75;;;8.10;;
27383;SDS011;14851;51.166;4.760;2024-01-10T11:30:35;11.00;;;7.15;;
27383;SDS011;14851;51.166;4.760;2024-01-10T11:33:18;13.90;;;8.77;;
27383;SDS011;14851;51.166;4.760;2024-01-10T11:36:10;12.10;;;7.55;;
27383;SDS011;14851;51.166;4.760;2024-01-10T11:38:48;18.77;;;8.85;;
27383;SDS011;14851;51.166;4.760;2024-01-10T11:41:24;13.18;;;8.52;;
27383;SDS011;14851;51.166;4.760;2024-01-10T11:46:53;15.52;;;8.23;;
27383;SDS011;14851;51.166;4.760;2024-01-10T11:49:22;12.00;;;7.18;;
27383;SDS011;14851;51.166;4.760;2024-01-10T11:51:59;12.40;;;7.25;;
27383;SDS011;14851;51.166;4.760;2024-01-10T11:59:46;16.08;;;9.05;;
27383;SDS011;14851;51.166;4.760;2024-01-10T12:02:19;13.02;;;7.90;;
27383;SDS011;14851;51.166;4.760;2024-01-10T12:04:47;16.80;;;8.55;;
27383;SDS011;14851;51.166;4.760;2024-01-10T12:07:14;13.45;;;7.82;;
27383;SDS011;14851;51.166;4.760;2024-01-10T12:09:41;13.98;;;9.27;;
27383;SDS011;14851;51.166;4.760;2024-01-10T12:12:07;14.02;;;7.45;;
27383;SDS011;14851;51.166;4.760;2024-01-10T12:14:35;15.55;;;9.23;;
27383;SDS011;14851;51.166;4.760;2024-01-10T12:17:02;11.75;;;7.70;;
27383;SDS011;14851;51.166;4.760;2024-01-10T12:19:30;13.32;;;8.55;;
27383;SDS011;14851;51.166;4.760;2024-01-10T12:21:57;12.20;;;7.72;;
27383;SDS011;14851;51.166;4.760;2024-01-10T12:24:23;13.55;;;7.63;;
27383;SDS011;14851;51.166;4.760;2024-01-10T12:26:53;14.35;;;9.10;;
27383;SDS011;14851;51.166;4.760;2024-01-10T12:29:21;13.45;;;7.80;;
27383;SDS011;14851;51.166;4.760;2024-01-10T12:31:49;11.77;;;8.10;;
27383;SDS011;14851;51.166;4.760;2024-01-10T12:34:16;16.02;;;8.93;;
27383;SDS011;14851;51.166;4.760;2024-01-10T12:36:46;13.23;;;9.00;;
27383;SDS011;14851;51.166;4.760;2024-01-10T12:39:13;12.73;;;8.48;;
27383;SDS011;14851;51.166;4.760;2024-01-10T12:41:40;15.63;;;9.10;;
27383;SDS011;14851;51.166;4.760;2024-01-10T12:44:07;16.77;;;8.32;;
27383;SDS011;14851;51.166;4.760;2024-01-10T12:46:33;15.73;;;9.02;;
27383;SDS011;14851;51.166;4.760;2024-01-10T12:49:04;14.07;;;8.73;;
27383;SDS011;14851;51.166;4.760;2024-01-10T12:51:32;15.30;;;9.60;;
27383;SDS011;14851;51.166;4.760;2024-01-10T12:54:02;15.02;;;9.02;;
27383;SDS011;14851;51.166;4.760;2024-01-10T12:56:32;14.88;;;8.38;;
27383;SDS011;14851;51.166;4.760;2024-01-10T12:58:59;17.33;;;9.25;;
27383;SDS011;14851;51.166;4.760;2024-01-10T13:01:28;15.15;;;9.50;;
27383;SDS011;14851;51.166;4.760;2024-01-10T13:03:59;16.08;;;9.10;;
27383;SDS011;14851;51.166;4.760;2024-01-10T13:06:25;18.00;;;10.07;;
27383;SDS011;14851;51.166;4.760;2024-01-10T13:08:52;15.15;;;8.80;;
27383;SDS011;14851;51.166;4.760;2024-01-10T13:11:20;16.00;;;9.82;;
27383;SDS011;14851;51.166;4.760;2024-01-10T13:13:48;18.88;;;10.65;;
27383;SDS011;14851;51.166;4.760;2024-01-10T13:16:15;16.05;;;9.35;;
27383;SDS011;14851;51.166;4.760;2024-01-10T13:18:42;14.13;;;9.52;;
27383;SDS011;14851;51.166;4.760;2024-01-10T13:21:08;18.52;;;9.32;;
27383;SDS011;14851;51.166;4.760;2024-01-10T13:23:36;16.80;;;9.52;;
27383;SDS011;14851;51.166;4.760;2024-01-10T13:26:02;15.63;;;9.48;;
27383;SDS011;14851;51.166;4.760;2024-01-10T13:28:28;16.33;;;9.15;;
27383;SDS011;14851;51.166;4.760;2024-01-10T13:30:55;16.85;;;9.88;;
27383;SDS011;14851;51.166;4.760;2024-01-10T13:33:21;17.83;;;9.10;;
27383;SDS011;14851;51.166;4.760;2024-01-10T13:35:48;18.05;;;9.80;;
27383;SDS011;14851;51.166;4.760;2024-01-10T13:38:15;13.77;;;9.30;;
27383;SDS011;14851;51.166;4.760;2024-01-10T13:40:41;16.40;;;10.05;;
27383;SDS011;14851;51.166;4.760;2024-01-10T13:43:09;16.92;;;9.55;;
27383;SDS011;14851;51.166;4.760;2024-01-10T13:45:35;17.92;;;10.00;;
27383;SDS011;14851;51.166;4.760;2024-01-10T13:48:01;15.50;;;9.60;;
27383;SDS011;14851;51.166;4.760;2024-01-10T13:50:28;16.80;;;9.25;;
27383;SDS011;14851;51.166;4.760;2024-01-10T13:52:55;16.80;;;9.02;;
27383;SDS011;14851;51.166;4.760;2024-01-10T13:55:24;12.88;;;8.55;;
27383;SDS011;14851;51.166;4.760;2024-01-10T13:57:53;17.35;;;9.30;;
27383;SDS011;14851;51.166;4.760;2024-01-10T14:00:21;16.67;;;8.48;;
27383;SDS011;14851;51.166;4.760;2024-01-10T14:02:47;16.50;;;10.38;;
27383;SDS011;14851;51.166;4.760;2024-01-10T14:05:14;15.05;;;9.25;;
27383;SDS011;14851;51.166;4.760;2024-01-10T14:07:40;17.02;;;9.88;;
27383;SDS011;14851;51.166;4.760;2024-01-10T14:10:12;15.35;;;9.32;;
27383;SDS011;14851;51.166;4.760;2024-01-10T14:12:39;18.00;;;9.63;;
27383;SDS011;14851;51.166;4.760;2024-01-10T14:15:05;16.63;;;10.27;;
27383;SDS011;14851;51.166;4.760;2024-01-10T14:17:32;14.82;;;9.70;;
27383;SDS011;14851;51.166;4.760;2024-01-10T14:19:58;18.77;;;9.30;;
27383;SDS011;14851;51.166;4.760;2024-01-10T14:22:24;16.02;;;9.38;;
27383;SDS011;14851;51.166;4.760;2024-01-10T14:24:52;15.95;;;9.55;;
27383;SDS011;14851;51.166;4.760;2024-01-10T14:27:20;16.45;;;9.90;;
27383;SDS011;14851;51.166;4.760;2024-01-10T14:29:51;14.70;;;9.18;;
27383;SDS011;14851;51.166;4.760;2024-01-10T14:32:17;16.13;;;9.18;;
27383;SDS011;14851;51.166;4.760;2024-01-10T14:34:46;14.57;;;9.05;;
27383;SDS011;14851;51.166;4.760;2024-01-10T14:37:12;17.10;;;10.00;;
27383;SDS011;14851;51.166;4.760;2024-01-10T14:39:39;16.20;;;8.68;;
27383;SDS011;14851;51.166;4.760;2024-01-10T14:42:06;13.98;;;8.70;;
27383;SDS011;14851;51.166;4.760;2024-01-10T14:44:34;19.73;;;9.80;;
27383;SDS011;14851;51.166;4.760;2024-01-10T14:47:01;17.13;;;9.60;;
27383;SDS011;14851;51.166;4.760;2024-01-10T14:49:28;16.35;;;9.38;;
27383;SDS011;14851;51.166;4.760;2024-01-10T14:51:56;16.77;;;8.15;;
27383;SDS011;14851;51.166;4.760;2024-01-10T14:54:25;17.60;;;10.15;;
27383;SDS011;14851;51.166;4.760;2024-01-10T14:56:51;19.27;;;9.23;;
27383;SDS011;14851;51.166;4.760;2024-01-10T14:59:18;14.95;;;9.20;;
27383;SDS011;14851;51.166;4.760;2024-01-10T15:01:45;14.82;;;8.98;;
27383;SDS011;14851;51.166;4.760;2024-01-10T15:04:12;15.73;;;9.38;;
27383;SDS011;14851;51.166;4.760;2024-01-10T15:06:44;16.90;;;10.15;;
27383;SDS011;14851;51.166;4.760;2024-01-10T15:09:12;16.52;;;9.90;;
27383;SDS011;14851;51.166;4.760;2024-01-10T15:11:42;19.00;;;10.15;;
27383;SDS011;14851;51.166;4.760;2024-01-10T15:14:09;21.10;;;10.85;;
27383;SDS011;14851;51.166;4.760;2024-01-10T15:16:35;15.38;;;9.82;;
27383;SDS011;14851;51.166;4.760;2024-01-10T15:19:01;17.55;;;10.52;;
27383;SDS011;14851;51.166;4.760;2024-01-10T15:21:30;18.50;;;11.07;;
27383;SDS011;14851;51.166;4.760;2024-01-10T15:23:56;17.65;;;10.77;;